sensor_id;sensor_type;location;lat;lon;timestamp;pressure;altitude;pressure_sealevel;temperature;humidity
19843;BME280;10082;51.038;6.992;2022-07-21T00:00:00;112171.53;;;-144.33;100.00
19843;BME280;10082;51.038;6.992;2022-07-21T00:02:30;112171.53;;;-144.33;100.00
19843;BME280;10082;51.038;6.992;2022-07-21T00:04:56;112171.53;;;-144.33;100.00
19843;BME280;10082;51.038;6.992;2022-07-21T00:07:23;112171.53;;;-144.33;100.00
19843;BME280;10082;51.038;6.992;2022-07-21T00:09:50;112171.53;;;-144.33;100.00
19843;BME280;10082;51.038;6.992;2022-07-21T00:12:16;112171.53;;;-144.33;100.00
19843;BME280;10082;51.038;6.992;2022-07-21T00:14:43;112171.53;;;-144.33;100.00
19843;BME280;10082;51.038;6.992;2022-07-21T00:17:11;112171.53;;;-144.33;100.00
19843;BME280;10082;51.038;6.992;2022-07-21T00:19:37;112171.53;;;-144.33;100.00
19843;BME280;10082;51.038;6.992;2022-07-21T00:22:04;112171.53;;;-144.33;100.00
19843;BME280;10082;51.038;6.992;2022-07-21T00:24:31;112171.53;;;-144.33;100.00
19843;BME280;10082;51.038;6.992;2022-07-21T00:26:57;112171.53;;;-144.33;100.00
19843;BME280;10082;51.038;6.992;2022-07-21T00:29:24;112171.53;;;-144.33;100.00
19843;BME280;10082;51.038;6.992;2022-07-21T00:31:51;112171.53;;;-144.33;100.00
19843;BME280;10082;51.038;6.992;2022-07-21T00:34:19;112171.53;;;-144.33;100.00
19843;BME280;10082;51.038;6.992;2022-07-21T00:36:45;112171.53;;;-144.33;100.00
19843;BME280;10082;51.038;6.992;2022-07-21T00:39:12;112171.53;;;-144.33;100.00
19843;BME280;10082;51.038;6.992;2022-07-21T00:41:39;112171.53;;;-144.33;100.00
19843;BME280;10082;51.038;6.992;2022-07-21T00:44:05;112171.53;;;-144.33;100.00
19843;BME280;10082;51.038;6.992;2022-07-21T00:46:32;112171.53;;;-144.33;100.00
19843;BME280;10082;51.038;6.992;2022-07-21T00:48:59;112171.53;;;-144.33;100.00
19843;BME280;10082;51.038;6.992;2022-07-21T00:51:27;112171.53;;;-144.33;100.00
19843;BME280;10082;51.038;6.992;2022-07-21T00:53:54;112171.53;;;-144.33;100.00
19843;BME280;10082;51.038;6.992;2022-07-21T00:56:21;112171.53;;;-144.33;100.00
19843;BME280;10082;51.038;6.992;2022-07-21T00:58:48;112171.53;;;-144.33;100.00
19843;BME280;10082;51.038;6.992;2022-07-21T01:01:14;112171.53;;;-144.33;100.00
19843;BME280;10082;51.038;6.992;2022-07-21T01:03:41;112171.53;;;-144.33;100.00
19843;BME280;10082;51.038;6.992;2022-07-21T01:06:08;112171.53;;;-144.33;100.00
19843;BME280;10082;51.038;6.992;2022-07-21T01:08:36;112171.53;;;-144.33;100.00
19843;BME280;10082;51.038;6.992;2022-07-21T01:11:03;112171.53;;;-144.33;100.00
19843;BME280;10082;51.038;6.992;2022-07-21T01:13:30;112171.53;;;-144.33;100.00
19843;BME280;10082;51.038;6.992;2022-07-21T01:15:56;112171.53;;;-144.33;100.00
19843;BME280;10082;51.038;6.992;2022-07-21T01:18:23;112171.53;;;-144.33;100.00
19843;BME280;10082;51.038;6.992;2022-07-21T01:20:52;112171.53;;;-144.33;100.00
19843;BME280;10082;51.038;6.992;2022-07-21T01:23:21;112171.53;;;-144.33;100.00
19843;BME280;10082;51.038;6.992;2022-07-21T01:25:48;112171.53;;;-144.33;100.00
19843;BME280;10082;51.038;6.992;2022-07-21T01:28:15;112171.53;;;-144.33;100.00
19843;BME280;10082;51.038;6.992;2022-07-21T01:30:42;112171.53;;;-144.33;100.00
19843;BME280;10082;51.038;6.992;2022-07-21T01:33:09;112171.53;;;-144.33;100.00
19843;BME280;10082;51.038;6.992;2022-07-21T01:35:36;112171.53;;;-144.33;100.00
19843;BME280;10082;51.038;6.992;2022-07-21T01:38:03;112171.53;;;-144.33;100.00
19843;BME280;10082;51.038;6.992;2022-07-21T01:40:31;112171.53;;;-144.33;100.00
19843;BME280;10082;51.038;6.992;2022-07-21T01:43:30;112171.53;;;-144.33;100.00
19843;BME280;10082;51.038;6.992;2022-07-21T01:45:56;112171.53;;;-144.33;100.00
19843;BME280;10082;51.038;6.992;2022-07-21T01:48:23;112171.53;;;-144.33;100.00
19843;BME280;10082;51.038;6.992;2022-07-21T01:50:50;112171.53;;;-144.33;100.00
19843;BME280;10082;51.038;6.992;2022-07-21T01:53:16;112171.53;;;-144.33;100.00
19843;BME280;10082;51.038;6.992;2022-07-21T01:55:44;112171.53;;;-144.33;100.00
19843;BME280;10082;51.038;6.992;2022-07-21T01:58:11;112171.53;;;-144.33;100.00
19843;BME280;10082;51.038;6.992;2022-07-21T02:00:38;112171.53;;;-144.33;100.00
19843;BME280;10082;51.038;6.992;2022-07-21T02:03:04;112171.53;;;-144.33;100.00
19843;BME280;10082;51.038;6.992;2022-07-21T02:05:31;112171.53;;;-144.33;100.00
19843;BME280;10082;51.038;6.992;2022-07-21T02:07:58;112171.53;;;-144.33;100.00
19843;BME280;10082;51.038;6.992;2022-07-21T02:10:25;112171.53;;;-144.33;100.00
19843;BME280;10082;51.038;6.992;2022-07-21T02:12:53;112171.53;;;-144.33;100.00
19843;BME280;10082;51.038;6.992;2022-07-21T02:15:19;112171.53;;;-144.33;100.00
19843;BME280;10082;51.038;6.992;2022-07-21T02:17:46;112171.53;;;-144.33;100.00
19843;BME280;10082;51.038;6.992;2022-07-21T02:20:13;112171.53;;;-144.33;100.00
19843;BME280;10082;51.038;6.992;2022-07-21T02:22:39;112171.53;;;-144.33;100.00
19843;BME280;10082;51.038;6.992;2022-07-21T02:25:10;112171.53;;;-144.33;100.00
19843;BME280;10082;51.038;6.992;2022-07-21T02:27:37;112171.53;;;-144.33;100.00
19843;BME280;10082;51.038;6.992;2022-07-21T02:30:06;112171.53;;;-144.33;100.00
19843;BME280;10082;51.038;6.992;2022-07-21T02:32:32;112171.53;;;-144.33;100.00
19843;BME280;10082;51.038;6.992;2022-07-21T02:34:59;112171.53;;;-144.33;100.00
19843;BME280;10082;51.038;6.992;2022-07-21T02:37:27;112171.53;;;-144.33;100.00
19843;BME280;10082;51.038;6.992;2022-07-21T02:39:53;112171.53;;;-144.33;100.00
19843;BME280;10082;51.038;6.992;2022-07-21T02:42:20;112171.53;;;-144.33;100.00
19843;BME280;10082;51.038;6.992;2022-07-21T02:44:47;112171.53;;;-144.33;100.00
19843;BME280;10082;51.038;6.992;2022-07-21T02:47:15;112171.53;;;-144.33;100.00
19843;BME280;10082;51.038;6.992;2022-07-21T02:49:42;112171.53;;;-144.33;100.00
19843;BME280;10082;51.038;6.992;2022-07-21T02:52:10;112171.53;;;-144.33;100.00
19843;BME280;10082;51.038;6.992;2022-07-21T02:54:37;112171.53;;;-144.33;100.00
19843;BME280;10082;51.038;6.992;2022-07-21T02:57:03;112171.53;;;-144.33;100.00
19843;BME280;10082;51.038;6.992;2022-07-21T02:59:30;112171.53;;;-144.33;100.00
19843;BME280;10082;51.038;6.992;2022-07-21T03:01:57;112171.53;;;-144.33;100.00
19843;BME280;10082;51.038;6.992;2022-07-21T03:04:25;112171.53;;;-144.33;100.00
19843;BME280;10082;51.038;6.992;2022-07-21T03:06:51;112171.53;;;-144.33;100.00
19843;BME280;10082;51.038;6.992;2022-07-21T03:09:18;112171.53;;;-144.33;100.00
19843;BME280;10082;51.038;6.992;2022-07-21T03:11:45;112171.53;;;-144.33;100.00
19843;BME280;10082;51.038;6.992;2022-07-21T03:14:11;112171.53;;;-144.33;100.00
19843;BME280;10082;51.038;6.992;2022-07-21T03:16:38;112171.53;;;-144.33;100.00
19843;BME280;10082;51.038;6.992;2022-07-21T03:19:04;112171.53;;;-144.33;100.00
19843;BME280;10082;51.038;6.992;2022-07-21T03:21:32;112171.53;;;-144.33;100.00
19843;BME280;10082;51.038;6.992;2022-07-21T03:23:59;112171.53;;;-144.33;100.00
19843;BME280;10082;51.038;6.992;2022-07-21T03:26:26;112171.53;;;-144.33;100.00
19843;BME280;10082;51.038;6.992;2022-07-21T03:28:52;112171.53;;;-144.33;100.00
19843;BME280;10082;51.038;6.992;2022-07-21T03:31:19;112171.53;;;-144.33;100.00
19843;BME280;10082;51.038;6.992;2022-07-21T03:33:46;112171.53;;;-144.33;100.00
19843;BME280;10082;51.038;6.992;2022-07-21T03:36:13;112171.53;;;-144.33;100.00
19843;BME280;10082;51.038;6.992;2022-07-21T03:38:41;112171.53;;;-144.33;100.00
19843;BME280;10082;51.038;6.992;2022-07-21T03:41:07;112171.53;;;-144.33;100.00
19843;BME280;10082;51.038;6.992;2022-07-21T03:43:34;112171.53;;;-144.33;100.00
19843;BME280;10082;51.038;6.992;2022-07-21T03:46:01;112171.53;;;-144.33;100.00
19843;BME280;10082;51.038;6.992;2022-07-21T03:48:27;112171.53;;;-144.33;100.00
19843;BME280;10082;51.038;6.992;2022-07-21T03:50:54;112171.53;;;-144.33;100.00
19843;BME280;10082;51.038;6.992;2022-07-21T03:53:21;112171.53;;;-144.33;100.00
19843;BME280;10082;51.038;6.992;2022-07-21T03:55:48;112171.53;;;-144.33;100.00
19843;BME280;10082;51.038;6.992;2022-07-21T03:58:15;112171.53;;;-144.33;100.00
19843;BME280;10082;51.038;6.992;2022-07-21T04:00:44;112171.53;;;-144.33;100.00
19843;BME280;10082;51.038;6.992;2022-07-21T04:03:11;112171.53;;;-144.33;100.00
19843;BME280;10082;51.038;6.992;2022-07-21T04:05:40;112171.53;;;-144.33;100.00
19843;BME280;10082;51.038;6.992;2022-07-21T04:08:07;112171.53;;;-144.33;100.00
19843;BME280;10082;51.038;6.992;2022-07-21T04:10:37;112171.53;;;-144.33;100.00
19843;BME280;10082;51.038;6.992;2022-07-21T04:13:07;112171.53;;;-144.33;100.00
19843;BME280;10082;51.038;6.992;2022-07-21T04:15:35;112171.53;;;-144.33;100.00
19843;BME280;10082;51.038;6.992;2022-07-21T04:18:02;112171.53;;;-144.33;100.00
19843;BME280;10082;51.038;6.992;2022-07-21T04:20:29;112171.53;;;-144.33;100.00
19843;BME280;10082;51.038;6.992;2022-07-21T04:22:56;112171.53;;;-144.33;100.00
19843;BME280;10082;51.038;6.992;2022-07-21T04:25:22;112171.53;;;-144.33;100.00
19843;BME280;10082;51.038;6.992;2022-07-21T04:27:50;112171.53;;;-144.33;100.00
19843;BME280;10082;51.038;6.992;2022-07-21T04:30:20;112171.53;;;-144.33;100.00
19843;BME280;10082;51.038;6.992;2022-07-21T04:32:47;112171.53;;;-144.33;100.00
19843;BME280;10082;51.038;6.992;2022-07-21T04:35:14;112171.53;;;-144.33;100.00
19843;BME280;10082;51.038;6.992;2022-07-21T04:37:42;112171.53;;;-144.33;100.00
19843;BME280;10082;51.038;6.992;2022-07-21T04:40:10;112171.53;;;-144.33;100.00
19843;BME280;10082;51.038;6.992;2022-07-21T04:42:38;112171.53;;;-144.33;100.00
19843;BME280;10082;51.038;6.992;2022-07-21T04:45:06;112171.53;;;-144.33;100.00
19843;BME280;10082;51.038;6.992;2022-07-21T04:47:42;112171.53;;;-144.33;100.00
19843;BME280;10082;51.038;6.992;2022-07-21T04:50:09;112171.53;;;-144.33;100.00
19843;BME280;10082;51.038;6.992;2022-07-21T04:52:36;112171.53;;;-144.33;100.00
19843;BME280;10082;51.038;6.992;2022-07-21T04:55:04;112171.53;;;-144.33;100.00
19843;BME280;10082;51.038;6.992;2022-07-21T04:57:30;112171.53;;;-144.33;100.00
19843;BME280;10082;51.038;6.992;2022-07-21T04:59:57;112171.53;;;-144.33;100.00
19843;BME280;10082;51.038;6.992;2022-07-21T05:02:24;112171.53;;;-144.33;100.00
19843;BME280;10082;51.038;6.992;2022-07-21T05:04:52;112171.53;;;-144.33;100.00
19843;BME280;10082;51.038;6.992;2022-07-21T05:07:18;112171.53;;;-144.33;100.00
19843;BME280;10082;51.038;6.992;2022-07-21T05:09:45;112171.53;;;-144.33;100.00
19843;BME280;10082;51.038;6.992;2022-07-21T05:12:12;112171.53;;;-144.33;100.00
19843;BME280;10082;51.038;6.992;2022-07-21T05:14:38;112171.53;;;-144.33;100.00
19843;BME280;10082;51.038;6.992;2022-07-21T05:17:05;112171.53;;;-144.33;100.00
19843;BME280;10082;51.038;6.992;2022-07-21T05:19:32;112171.53;;;-144.33;100.00
19843;BME280;10082;51.038;6.992;2022-07-21T05:22:00;112171.53;;;-144.33;100.00
19843;BME280;10082;51.038;6.992;2022-07-21T05:24:27;112171.53;;;-144.33;100.00
19843;BME280;10082;51.038;6.992;2022-07-21T05:26:53;112171.53;;;-144.33;100.00
19843;BME280;10082;51.038;6.992;2022-07-21T05:29:20;112171.53;;;-144.33;100.00
19843;BME280;10082;51.038;6.992;2022-07-21T05:31:46;112171.53;;;-144.33;100.00
19843;BME280;10082;51.038;6.992;2022-07-21T05:34:13;112171.53;;;-144.33;100.00
19843;BME280;10082;51.038;6.992;2022-07-21T05:36:40;112171.53;;;-144.33;100.00
19843;BME280;10082;51.038;6.992;2022-07-21T05:39:08;112171.53;;;-144.33;100.00
19843;BME280;10082;51.038;6.992;2022-07-21T05:41:35;112171.53;;;-144.33;100.00
19843;BME280;10082;51.038;6.992;2022-07-21T05:44:02;112171.53;;;-144.33;100.00
19843;BME280;10082;51.038;6.992;2022-07-21T05:46:28;112171.53;;;-144.33;100.00
19843;BME280;10082;51.038;6.992;2022-07-21T05:48:55;112171.53;;;-144.33;100.00
19843;BME280;10082;51.038;6.992;2022-07-21T05:51:22;112171.53;;;-144.33;100.00
19843;BME280;10082;51.038;6.992;2022-07-21T05:53:48;112171.53;;;-144.33;100.00
19843;BME280;10082;51.038;6.992;2022-07-21T05:56:16;112171.53;;;-144.33;100.00
19843;BME280;10082;51.038;6.992;2022-07-21T05:58:43;112171.53;;;-144.33;100.00
19843;BME280;10082;51.038;6.992;2022-07-21T06:01:10;112171.53;;;-144.33;100.00
19843;BME280;10082;51.038;6.992;2022-07-21T06:03:39;112171.53;;;-144.33;100.00
19843;BME280;10082;51.038;6.992;2022-07-21T06:06:06;112171.53;;;-144.33;100.00
19843;BME280;10082;51.038;6.992;2022-07-21T06:08:33;112171.53;;;-144.33;100.00
19843;BME280;10082;51.038;6.992;2022-07-21T06:11:00;112171.53;;;-144.33;100.00
19843;BME280;10082;51.038;6.992;2022-07-21T06:13:28;112171.53;;;-144.33;100.00
19843;BME280;10082;51.038;6.992;2022-07-21T06:15:55;112171.53;;;-144.33;100.00
19843;BME280;10082;51.038;6.992;2022-07-21T06:18:22;112171.53;;;-144.33;100.00
19843;BME280;10082;51.038;6.992;2022-07-21T06:20:49;112171.53;;;-144.33;100.00
19843;BME280;10082;51.038;6.992;2022-07-21T06:23:16;112171.53;;;-144.33;100.00
19843;BME280;10082;51.038;6.992;2022-07-21T06:25:43;112171.53;;;-144.33;100.00
19843;BME280;10082;51.038;6.992;2022-07-21T06:28:10;112171.53;;;-144.33;100.00
19843;BME280;10082;51.038;6.992;2022-07-21T06:30:39;112171.53;;;-144.33;100.00
19843;BME280;10082;51.038;6.992;2022-07-21T06:33:05;112171.53;;;-144.33;100.00
19843;BME280;10082;51.038;6.992;2022-07-21T06:35:33;112171.53;;;-144.33;100.00
19843;BME280;10082;51.038;6.992;2022-07-21T06:37:59;112171.53;;;-144.33;100.00
19843;BME280;10082;51.038;6.992;2022-07-21T06:40:26;112171.53;;;-144.33;100.00
19843;BME280;10082;51.038;6.992;2022-07-21T06:42:53;112171.53;;;-144.33;100.00
19843;BME280;10082;51.038;6.992;2022-07-21T06:45:19;112171.53;;;-144.33;100.00
19843;BME280;10082;51.038;6.992;2022-07-21T06:47:47;112171.53;;;-144.33;100.00
19843;BME280;10082;51.038;6.992;2022-07-21T06:50:14;112171.53;;;-144.33;100.00
19843;BME280;10082;51.038;6.992;2022-07-21T06:52:41;112171.53;;;-144.33;100.00
19843;BME280;10082;51.038;6.992;2022-07-21T06:55:08;112171.53;;;-144.33;100.00
19843;BME280;10082;51.038;6.992;2022-07-21T06:57:36;112171.53;;;-144.33;100.00
19843;BME280;10082;51.038;6.992;2022-07-21T07:00:04;112171.53;;;-144.33;100.00
19843;BME280;10082;51.038;6.992;2022-07-21T07:02:31;112171.53;;;-144.33;100.00
19843;BME280;10082;51.038;6.992;2022-07-21T07:04:59;112171.53;;;-144.33;100.00
19843;BME280;10082;51.038;6.992;2022-07-21T07:07:26;112171.53;;;-144.33;100.00
19843;BME280;10082;51.038;6.992;2022-07-21T07:09:54;112171.53;;;-144.33;100.00
19843;BME280;10082;51.038;6.992;2022-07-21T07:12:21;112171.53;;;-144.33;100.00
19843;BME280;10082;51.038;6.992;2022-07-21T07:14:48;112171.53;;;-144.33;100.00
19843;BME280;10082;51.038;6.992;2022-07-21T07:17:16;112171.53;;;-144.33;100.00
19843;BME280;10082;51.038;6.992;2022-07-21T07:19:43;112171.53;;;-144.33;100.00
19843;BME280;10082;51.038;6.992;2022-07-21T07:22:11;112171.53;;;-144.33;100.00
19843;BME280;10082;51.038;6.992;2022-07-21T07:24:38;112171.53;;;-144.33;98.63
19843;BME280;10082;51.038;6.992;2022-07-21T07:27:05;112171.53;;;-144.33;95.16
19843;BME280;10082;51.038;6.992;2022-07-21T07:29:32;112171.53;;;-144.33;86.75
19843;BME280;10082;51.038;6.992;2022-07-21T07:31:58;112171.53;;;-144.33;83.39
19843;BME280;10082;51.038;6.992;2022-07-21T07:34:26;112171.53;;;-144.33;77.99
19843;BME280;10082;51.038;6.992;2022-07-21T07:36:52;112171.53;;;-144.33;72.24
19843;BME280;10082;51.038;6.992;2022-07-21T07:39:20;112171.53;;;-144.33;69.46
19843;BME280;10082;51.038;6.992;2022-07-21T07:41:47;112171.53;;;-144.33;68.44
19843;BME280;10082;51.038;6.992;2022-07-21T07:44:14;112171.53;;;-144.33;67.97
19843;BME280;10082;51.038;6.992;2022-07-21T07:46:40;112171.53;;;-144.33;66.96
19843;BME280;10082;51.038;6.992;2022-07-21T07:49:08;112171.53;;;-144.33;69.33
19843;BME280;10082;51.038;6.992;2022-07-21T07:51:34;112171.53;;;-144.33;64.91
19843;BME280;10082;51.038;6.992;2022-07-21T07:54:01;112171.53;;;-144.33;66.54
19843;BME280;10082;51.038;6.992;2022-07-21T07:56:30;112171.53;;;-144.33;66.44
19843;BME280;10082;51.038;6.992;2022-07-21T07:58:57;112171.53;;;-144.33;65.87
19843;BME280;10082;51.038;6.992;2022-07-21T08:01:24;112171.53;;;-144.33;63.27
19843;BME280;10082;51.038;6.992;2022-07-21T08:03:51;112171.53;;;-144.33;63.65
19843;BME280;10082;51.038;6.992;2022-07-21T08:06:18;112171.53;;;-144.33;62.35
19843;BME280;10082;51.038;6.992;2022-07-21T08:08:44;112171.53;;;-144.33;62.61
19843;BME280;10082;51.038;6.992;2022-07-21T08:11:11;112171.53;;;-144.33;62.11
19843;BME280;10082;51.038;6.992;2022-07-21T08:13:40;112171.53;;;-144.33;62.41
19843;BME280;10082;51.038;6.992;2022-07-21T08:16:07;112171.53;;;-144.33;61.36
19843;BME280;10082;51.038;6.992;2022-07-21T08:18:34;112171.53;;;-144.33;64.16
19843;BME280;10082;51.038;6.992;2022-07-21T08:21:00;112171.53;;;-144.33;66.41
19843;BME280;10082;51.038;6.992;2022-07-21T08:23:27;112171.53;;;-144.33;65.51
19843;BME280;10082;51.038;6.992;2022-07-21T08:25:54;112171.53;;;-144.33;67.74
19843;BME280;10082;51.038;6.992;2022-07-21T08:28:20;112171.53;;;-144.33;68.77
19843;BME280;10082;51.038;6.992;2022-07-21T08:30:48;112171.53;;;-144.33;64.34
19843;BME280;10082;51.038;6.992;2022-07-21T08:33:15;112171.53;;;-144.33;67.33
19843;BME280;10082;51.038;6.992;2022-07-21T08:35:42;112171.53;;;-144.33;64.86
19843;BME280;10082;51.038;6.992;2022-07-21T08:38:09;112171.53;;;-144.33;62.49
19843;BME280;10082;51.038;6.992;2022-07-21T08:40:38;112171.53;;;-144.33;64.64
19843;BME280;10082;51.038;6.992;2022-07-21T08:43:06;112171.53;;;-144.33;67.80
19843;BME280;10082;51.038;6.992;2022-07-21T08:45:34;112171.53;;;-144.33;67.75
19843;BME280;10082;51.038;6.992;2022-07-21T08:48:03;112171.53;;;-144.33;67.07
19843;BME280;10082;51.038;6.992;2022-07-21T08:50:32;112171.53;;;-144.33;62.55
19843;BME280;10082;51.038;6.992;2022-07-21T08:52:59;112171.53;;;-144.33;65.58
19843;BME280;10082;51.038;6.992;2022-07-21T08:55:28;112171.53;;;-144.33;67.43
19843;BME280;10082;51.038;6.992;2022-07-21T08:57:55;112171.53;;;-144.33;69.75
19843;BME280;10082;51.038;6.992;2022-07-21T09:00:21;112171.53;;;-144.33;72.25
19843;BME280;10082;51.038;6.992;2022-07-21T09:02:48;112171.53;;;-144.33;72.87
19843;BME280;10082;51.038;6.992;2022-07-21T09:05:16;112171.53;;;-144.33;71.06
19843;BME280;10082;51.038;6.992;2022-07-21T09:07:50;112171.53;;;-144.33;72.40
19843;BME280;10082;51.038;6.992;2022-07-21T09:10:22;112171.53;;;-144.33;72.83
19843;BME280;10082;51.038;6.992;2022-07-21T09:12:51;112171.53;;;-144.33;70.17
19843;BME280;10082;51.038;6.992;2022-07-21T09:15:19;112171.53;;;-144.33;70.68
19843;BME280;10082;51.038;6.992;2022-07-21T09:18:03;112171.53;;;-144.33;66.50
19843;BME280;10082;51.038;6.992;2022-07-21T09:20:31;112171.53;;;-144.33;62.48
19843;BME280;10082;51.038;6.992;2022-07-21T09:23:07;112171.53;;;-144.33;61.17
19843;BME280;10082;51.038;6.992;2022-07-21T09:25:36;112171.53;;;-144.33;62.59
19843;BME280;10082;51.038;6.992;2022-07-21T09:28:11;112171.53;;;-144.33;62.59
19843;BME280;10082;51.038;6.992;2022-07-21T09:30:53;112171.53;;;-144.33;63.33
19843;BME280;10082;51.038;6.992;2022-07-21T09:33:22;112171.53;;;-144.33;66.20
19843;BME280;10082;51.038;6.992;2022-07-21T09:36:03;112171.53;;;-144.33;67.58
19843;BME280;10082;51.038;6.992;2022-07-21T09:38:32;112171.53;;;-144.33;67.91
19843;BME280;10082;51.038;6.992;2022-07-21T09:41:10;112171.53;;;-144.33;66.86
19843;BME280;10082;51.038;6.992;2022-07-21T09:43:42;112171.53;;;-144.33;64.71
19843;BME280;10082;51.038;6.992;2022-07-21T09:46:13;112171.53;;;-144.33;62.80
19843;BME280;10082;51.038;6.992;2022-07-21T09:48:41;112171.53;;;-144.33;60.37
19843;BME280;10082;51.038;6.992;2022-07-21T09:51:29;112171.53;;;-144.33;57.59
19843;BME280;10082;51.038;6.992;2022-07-21T09:53:58;112171.53;;;-144.33;56.35
19843;BME280;10082;51.038;6.992;2022-07-21T09:56:27;112171.53;;;-144.33;55.95
19843;BME280;10082;51.038;6.992;2022-07-21T09:58:55;112171.53;;;-144.33;55.86
19843;BME280;10082;51.038;6.992;2022-07-21T10:01:22;112171.53;;;-144.33;56.57
19843;BME280;10082;51.038;6.992;2022-07-21T10:03:51;112171.53;;;-144.33;55.00
19843;BME280;10082;51.038;6.992;2022-07-21T10:06:19;112171.53;;;-144.33;56.50
19843;BME280;10082;51.038;6.992;2022-07-21T10:08:48;112171.53;;;-144.33;56.17
19843;BME280;10082;51.038;6.992;2022-07-21T10:11:16;112171.53;;;-144.33;57.97
19843;BME280;10082;51.038;6.992;2022-07-21T10:13:43;112171.53;;;-144.33;57.46
19843;BME280;10082;51.038;6.992;2022-07-21T10:16:11;112171.53;;;-144.33;56.33
19843;BME280;10082;51.038;6.992;2022-07-21T10:18:45;112171.53;;;-144.33;56.42
19843;BME280;10082;51.038;6.992;2022-07-21T10:21:25;112171.53;;;-144.33;55.35
19843;BME280;10082;51.038;6.992;2022-07-21T10:23:54;112171.53;;;-144.33;54.44
19843;BME280;10082;51.038;6.992;2022-07-21T10:26:21;112171.53;;;-144.33;53.50
19843;BME280;10082;51.038;6.992;2022-07-21T10:28:48;112171.53;;;-144.33;54.85
19843;BME280;10082;51.038;6.992;2022-07-21T10:31:18;112171.53;;;-144.33;55.26
19843;BME280;10082;51.038;6.992;2022-07-21T10:33:56;112171.53;;;-144.33;56.13
19843;BME280;10082;51.038;6.992;2022-07-21T10:36:42;112171.53;;;-144.33;58.81
19843;BME280;10082;51.038;6.992;2022-07-21T10:39:22;112171.53;;;-144.33;60.39
19843;BME280;10082;51.038;6.992;2022-07-21T10:41:51;112171.53;;;-144.33;61.50
19843;BME280;10082;51.038;6.992;2022-07-21T10:44:38;112171.53;;;-144.33;62.33
19843;BME280;10082;51.038;6.992;2022-07-21T10:47:06;112171.53;;;-144.33;61.88
19843;BME280;10082;51.038;6.992;2022-07-21T10:49:45;112171.53;;;-144.33;62.35
19843;BME280;10082;51.038;6.992;2022-07-21T10:55:19;112171.53;;;-144.33;65.79
19843;BME280;10082;51.038;6.992;2022-07-21T10:58:15;112171.53;;;-144.33;69.06
19843;BME280;10082;51.038;6.992;2022-07-21T11:00:48;112171.53;;;-144.33;74.35
19843;BME280;10082;51.038;6.992;2022-07-21T11:03:18;112171.53;;;-144.33;78.92
19843;BME280;10082;51.038;6.992;2022-07-21T11:06:14;112171.53;;;-144.33;84.62
19843;BME280;10082;51.038;6.992;2022-07-21T11:08:42;112171.53;;;-144.33;88.88
19843;BME280;10082;51.038;6.992;2022-07-21T11:11:12;112171.53;;;-144.33;91.25
19843;BME280;10082;51.038;6.992;2022-07-21T11:13:59;112171.53;;;-144.33;92.79
19843;BME280;10082;51.038;6.992;2022-07-21T11:16:56;112171.53;;;-144.33;94.61
19843;BME280;10082;51.038;6.992;2022-07-21T11:19:33;112171.53;;;-144.33;96.94
19843;BME280;10082;51.038;6.992;2022-07-21T11:22:03;112171.53;;;-144.33;100.00
19843;BME280;10082;51.038;6.992;2022-07-21T11:24:30;112171.53;;;-144.33;100.00
19843;BME280;10082;51.038;6.992;2022-07-21T11:27:00;112171.53;;;-144.33;100.00
19843;BME280;10082;51.038;6.992;2022-07-21T11:29:28;112171.53;;;-144.33;100.00
19843;BME280;10082;51.038;6.992;2022-07-21T11:31:56;112171.53;;;-144.33;100.00
19843;BME280;10082;51.038;6.992;2022-07-21T11:34:24;112171.53;;;-144.33;100.00
19843;BME280;10082;51.038;6.992;2022-07-21T11:37:01;112171.53;;;-144.33;100.00
19843;BME280;10082;51.038;6.992;2022-07-21T11:39:28;112171.53;;;-144.33;100.00
19843;BME280;10082;51.038;6.992;2022-07-21T11:42:02;112171.53;;;-144.33;100.00
19843;BME280;10082;51.038;6.992;2022-07-21T11:44:29;112171.53;;;-144.33;100.00
19843;BME280;10082;51.038;6.992;2022-07-21T11:46:57;112171.53;;;-144.33;100.00
19843;BME280;10082;51.038;6.992;2022-07-21T11:49:25;112171.53;;;-144.33;100.00
19843;BME280;10082;51.038;6.992;2022-07-21T11:51:54;112171.53;;;-144.33;100.00
19843;BME280;10082;51.038;6.992;2022-07-21T11:54:25;112171.53;;;-144.33;100.00
19843;BME280;10082;51.038;6.992;2022-07-21T11:56:53;112171.53;;;-144.33;100.00
19843;BME280;10082;51.038;6.992;2022-07-21T11:59:22;112171.53;;;-144.33;100.00
19843;BME280;10082;51.038;6.992;2022-07-21T12:01:55;112171.53;;;-144.33;100.00
19843;BME280;10082;51.038;6.992;2022-07-21T12:04:43;112171.53;;;-144.33;100.00
19843;BME280;10082;51.038;6.992;2022-07-21T12:07:17;112171.53;;;-144.33;100.00
19843;BME280;10082;51.038;6.992;2022-07-21T12:09:46;112171.53;;;-144.33;100.00
19843;BME280;10082;51.038;6.992;2022-07-21T12:12:14;112171.53;;;-144.33;100.00
19843;BME280;10082;51.038;6.992;2022-07-21T12:14:44;112171.53;;;-144.33;100.00
19843;BME280;10082;51.038;6.992;2022-07-21T12:17:12;112171.53;;;-144.33;100.00
19843;BME280;10082;51.038;6.992;2022-07-21T12:19:39;112171.53;;;-144.33;100.00
19843;BME280;10082;51.038;6.992;2022-07-21T12:22:06;112171.53;;;-144.33;100.00
19843;BME280;10082;51.038;6.992;2022-07-21T12:24:54;112171.53;;;-144.33;100.00
19843;BME280;10082;51.038;6.992;2022-07-21T12:27:21;112171.53;;;-144.33;100.00
19843;BME280;10082;51.038;6.992;2022-07-21T12:29:50;112171.53;;;-144.33;100.00
19843;BME280;10082;51.038;6.992;2022-07-21T12:32:39;112171.53;;;-144.33;100.00